Flight Track Log - Related Links

Times and Time Zones

All times are in EDT time to prevent confusion due to time zone crossing. See the GJS3706 flight status page for this flight to view local times or setup timezone preferences in your user account.

Time Position Orientation Groundspeed Altitude Reporting Facility
EDT Latitude Longitude Course Direction KTS MPH feet Rate Location/Type
Mon 07:04:50 AM 43.6622 -70.4283 243° Southwest 200 230 3,100  Level Boston Center
Mon 07:05:50 AM 43.6700 -70.5169 277° West 236 272 5,200 2,450 Climbing Boston Center
Mon 07:06:50 AM 43.6906 -70.6253 285° West 272 313 8,000 2,600 Climbing Boston Center
Mon 07:07:50 AM 43.7067 -70.7225 283° West 286 329 10,400 2,050 Climbing Boston Center
Mon 07:08:50 AM 43.7106 -70.8517 272° West 306 352 12,100 1,550 Climbing Boston Center
Mon 07:09:00 AM 43.7238 -70.7084 264° West  Level FlightAware Approximate
Mon 07:09:50 AM 43.6789 -70.9644 249° West 334 384 13,500  Level Boston Center
Mon 07:10:00 AM 43.7049 -70.8480 243° Southwest  Level FlightAware Approximate
Mon 07:10:50 AM 43.6453 -71.1089 252° West 355 409 15,600  Level Boston Center
Mon 07:11:50 AM 43.6175 -71.2469 255° West 376 433 17,800 1,800 Climbing Boston Center
Mon 07:12:50 AM 43.5939 -71.3853 257° West 381 438 19,200 1,450 Climbing Boston Center
Mon 07:13:50 AM 43.5783 -71.5258 261° West 375 432 20,700 1,400 Climbing Boston Center
Mon 07:14:50 AM 43.5692 -71.6778 265° West 386 444 22,000 1,100 Climbing Boston Center
Mon 07:15:50 AM 43.5597 -71.8328 265° West 400 460 22,900 950 Climbing Boston Center
Mon 07:16:50 AM 43.5500 -71.9847 265° West 428 493 23,900 1,000 Climbing Boston Center
Mon 07:17:50 AM 43.5336 -72.1508 262° West 438 504 24,900 1,000 Climbing Boston Center
Mon 07:18:50 AM 43.5236 -72.3197 265° West 443 510 25,900 1,050 Climbing Boston Center
Mon 07:19:50 AM 43.5111 -72.4917 264° West 443 510 27,000 1,050 Climbing Boston Center
Mon 07:20:50 AM 43.4964 -72.6633 263° West 443 510 28,000 1,000 Climbing Boston Center
Mon 07:21:50 AM 43.4833 -72.8378 264° West 448 516 29,000 1,050 Climbing Boston Center
Mon 07:22:50 AM 43.4658 -73.0236 263° West 453 521 30,100 1,000 Climbing Boston Center
Mon 07:23:50 AM 43.4525 -73.1950 264° West 453 521 31,000 1,000 Climbing Boston Center
Mon 07:24:50 AM 43.4367 -73.3636 263° West 453 521 32,100 1,000 Climbing Boston Center
Mon 07:25:50 AM 43.4206 -73.5319 263° West 453 521 33,000 450 Climbing Boston Center
Mon 07:26:50 AM 43.4064 -73.6975 263° West 447 514 33,000  Level Boston Center
Mon 07:27:50 AM 43.3919 -73.8658 263° West 447 514 33,000  Level Boston Center
Mon 07:28:50 AM 43.3772 -74.0339 263° West 442 509 33,000 400 Level Boston Center
Mon 07:29:50 AM 43.3622 -74.2022 263° West 442 509 33,800 950 Climbing Boston Center
Mon 07:30:50 AM 43.3492 -74.3644 264° West 442 509 34,900 900 Climbing Boston Center
Mon 07:31:50 AM 43.3339 -74.5239 263° West 442 509 35,600 700 Climbing Boston Center
Mon 07:32:50 AM 43.3203 -74.6861 263° West 437 503 36,300 700 Climbing Boston Center
Mon 07:33:50 AM 43.3172 -74.8431 269° West 431 496 37,000 700 Climbing Boston Center
Mon 07:34:50 AM 43.3136 -74.9997 268° West 418 481 37,700 500 Climbing Boston Center
Mon 07:35:50 AM 43.3144 -75.1483 270° West 413 475 38,000 150 Climbing Boston Center
Mon 07:36:50 AM 43.3103 -75.3192 268° West 418 481 38,000  Level Boston Center
Mon 07:37:50 AM 43.3064 -75.4703 268° West 426 490 38,000  Level Boston Center
Mon 07:38:50 AM 43.3019 -75.6300 268° West 426 490 38,000  Level Boston Center
Mon 07:39:50 AM 43.2994 -75.7897 269° West 426 490 38,000  Level Boston Center
Mon 07:40:50 AM 43.2947 -75.9519 268° West 421 484 38,000  Level Boston Center
Mon 07:42:02 AM 43.2917 -76.1089 269° West 421 484 38,000  Level Boston Center
Mon 07:43:49 AM 43.2817 -76.4222 268° West 406 467 38,000  Level Cleveland Center
Mon 07:44:49 AM 43.2767 -76.5794 268° West 411 473 38,000  Level Cleveland Center
Mon 07:45:49 AM 43.2717 -76.7394 268° West 417 480 38,000  Level Cleveland Center
Mon 07:47:41 AM 43.2500 -77.0167 264° West 420 483 38,000  Level Toronto Center
Mon 07:48:41 AM 43.2333 -77.1833 262° West 410 472 38,000  Level Toronto Center
Mon 07:49:49 AM 43.2475 -77.3794 276° West 422 486 38,000  Level Cleveland Center
Mon 07:50:49 AM 43.2414 -77.5394 267° West 422 486 38,000  Level Cleveland Center
Mon 07:51:50 AM 43.2350 -77.6967 267° West 422 486 38,000  Level Cleveland Center
Mon 07:52:50 AM 43.2283 -77.8564 267° West 422 486 38,000  Level Cleveland Center
Mon 07:53:51 AM 43.2217 -78.0164 267° West 422 486 38,000  Level Cleveland Center
Mon 07:54:48 AM 43.2147 -78.1733 267° West 422 486 38,000  Level Cleveland Center
Mon 07:56:49 AM 43.2000 -78.4928 266° West 422 486 38,000  Level Cleveland Center
Mon 07:57:49 AM 43.1919 -78.6383 266° West 429 494 38,000  Level Cleveland Center
Mon 07:58:50 AM 43.1842 -78.7981 266° West 429 494 38,000  Level Cleveland Center
Mon 07:59:41 AM 43.1667 -78.9500 261° West 420 483 38,000  Level Toronto Center
Mon 08:00:41 AM 43.1500 -79.1000 261° West 420 483 38,000  Level Toronto Center
Mon 08:01:41 AM 43.1500 -79.2500 270° West 420 483 38,000  Level Toronto Center
Mon 08:02:41 AM 43.1333 -79.4000 261° West 420 483 38,000  Level Toronto Center
Mon 08:03:41 AM 43.1333 -79.5667 270° West 410 472 38,000  Level Toronto Center
Mon 08:05:00 AM 43.1218 -79.7659 266° West  Level FlightAware Approximate
Mon 08:05:41 AM 43.1167 -79.8833 266° West 410 472 38,000  Level Toronto Center
Mon 08:06:41 AM 43.1000 -80.0167 260° West 410 472 38,000  Level Toronto Center
Mon 08:07:41 AM 43.1000 -80.2000 270° West 410 472 38,000  Level Toronto Center
Mon 08:08:41 AM 43.0833 -80.3333 260° West 410 472 38,000  Level Toronto Center
Mon 08:09:41 AM 43.0667 -80.5000 262° West 410 472 38,000  Level Toronto Center
Mon 08:10:41 AM 43.0667 -80.6667 270° West 420 483 38,000  Level Toronto Center
Mon 08:12:41 AM 43.0333 -80.9833 262° West 420 483 38,000  Level Toronto Center
Mon 08:13:41 AM 43.0167 -81.1333 261° West 420 483 38,000  Level Toronto Center
Mon 08:14:41 AM 43.0167 -81.3000 270° West 420 483 38,000  Level Toronto Center
Mon 08:15:41 AM 43.0167 -81.4500 270° West 420 483 38,000  Level Toronto Center
Mon 08:16:41 AM 43.0167 -81.6167 270° West 420 483 38,000  Level Toronto Center
Mon 08:18:41 AM 43.0000 -81.9333 266° West 420 483 38,000  Level Toronto Center
Mon 08:19:41 AM 43.0000 -82.1000 270° West 430 495 38,000  Level Toronto Center
Mon 08:20:41 AM 43.0000 -82.2833 270° West 430 495 38,000  Level Toronto Center
Mon 08:21:41 AM 43.0000 -82.4333 270° West 440 506 38,000  Level Toronto Center
Mon 08:23:00 AM 43.0628 -82.6547 291° West 429 494 38,000  Level Cleveland Center
Mon 08:24:41 AM 43.1167 -82.9167 286° West 450 518 38,000  Level Toronto Center
Mon 08:25:01 AM 43.1272 -82.9811 283° West 444 511 38,000  Level Cleveland Center
Mon 08:26:02 AM 43.0781 -83.1300 246° West 413 475 38,000  Level Cleveland Center
Mon 08:27:00 AM 42.9922 -83.2428 224° Southwest 403 464 38,000  Level Cleveland Center
Mon 08:28:01 AM 42.9061 -83.3639 226° Southwest 423 487 38,000 -446 Level Cleveland Center
Mon 08:29:01 AM 42.8219 -83.4819 226° Southwest 436 502 37,100 -942 Descending Cleveland Center
Mon 08:30:02 AM 42.7783 -83.6297 248° West 423 487 36,100 -992 Descending Cleveland Center
Mon 08:31:02 AM 42.7822 -83.7969 272° West 426 490 35,100 -1,017 Descending Cleveland Center
Mon 08:32:00 AM 42.8044 -83.9708 280° West 438 504 34,100 -1,019 Descending Cleveland Center
Mon 08:33:41 AM 42.8333 -84.2500 278° West 460 529 32,400 -933 Descending Toronto Center
Mon 08:34:15 AM 42.8558 -84.3481 287° West 466 536 32,000 -400 Descending Chicago Center
Mon 08:34:41 AM 42.8667 -84.4333 280° West 470 541 32,000  Level Toronto Center
Mon 08:35:17 AM 42.8769 -84.5222 279° West 468 539 32,000  Level Chicago Center
Mon 08:36:19 AM 42.8725 -84.6992 268° West 469 540 32,000  Level Chicago Center
Mon 08:37:21 AM 42.8525 -84.8778 261° West 476 548 32,000 -419 Level Chicago Center
Mon 08:39:00 AM 42.8159 -85.1269 264° West  Level FlightAware Approximate
Mon 08:39:25 AM 42.8111 -85.2700 264° West 476 548 30,700  Level Chicago Center
Mon 08:40:27 AM 42.7922 -85.4478 262° West 475 547 28,000 -2,468 Descending Chicago Center
Mon 08:41:29 AM 42.7647 -85.6178 258° West 463 533 25,600 -2,304 Descending Chicago Center
Mon 08:42:32 AM 42.7358 -85.7811 257° West 446 513 23,200 -2,304 Descending Chicago Center
Mon 08:43:34 AM 42.7072 -85.9372 256° West 428 493 20,800 -1,548 Descending Chicago Center
Mon 08:44:36 AM 42.6797 -86.0864 256° West 409 471 20,000 -548 Descending Chicago Center
Mon 08:46:00 AM 42.6273 -86.2910 251° West  Level FlightAware Approximate
Mon 08:46:40 AM 42.6192 -86.4106 251° West 399 459 19,100  Level Chicago Center
Mon 08:47:42 AM 42.5922 -86.5517 256° West 389 448 17,100 -1,935 Descending Chicago Center
Mon 08:48:44 AM 42.5667 -86.6856 256° West 371 427 15,100 -1,946 Descending Chicago Center
Mon 08:50:00 AM 42.5091 -86.8668 250° West  Level FlightAware Approximate
Mon 08:50:47 AM 42.5008 -86.9489 250° West 373 429 11,100  Level Chicago Center
Mon 08:51:49 AM 42.4675 -87.0719 250° West 353 406 10,000 -532 Descending Chicago Center
Mon 08:52:51 AM 42.4328 -87.1914 249° West 344 396 10,000  Level Chicago Center
Mon 08:53:53 AM 42.3928 -87.3381 250° West 347 399 10,000  Level Chicago Center
Mon 08:54:55 AM 42.3572 -87.4681 250° West 350 403 10,000  Level Chicago Center
Mon 08:55:57 AM 42.3050 -87.5697 235° Southwest 339 390 10,000 -629 Level Chicago Center
Mon 08:56:59 AM 42.2411 -87.6381 218° Southwest 295 339 8,700 -1,403 Descending Chicago Center
Mon 08:58:01 AM 42.1786 -87.7050 218° Southwest 290 334 7,100 -761 Descending Chicago Center
Mon 08:59:13 AM 42.1000 -87.7833 216° Southwest 281 323 7,000 -24 Descending Chicago TRACON
Mon 09:02:09 AM 42.0917 -88.0383 268° West 215 247 7,000 -76 Level Chicago Center
Mon 09:03:11 AM 42.0914 -88.1139 270° West 207 238 6,700 -1,062 Descending Chicago Center
Mon 09:04:19 AM 42.0667 -88.1833 244° Southwest 214 246 4,700 -1,547 Descending Chicago TRACON
Mon 09:05:19 AM 42.0167 -88.1500 154° Southeast 191 220 3,400 -700 Descending Chicago TRACON
Mon 09:07:19 AM 41.9833 -88.0439 113° Southeast 172 198 2,600 -527 Descending Chicago Center
Mon 09:08:21 AM 41.9833 -87.9900 90° East 155 178 1,800 -726 Descending Chicago Center
Mon 09:09:23 AM 41.9833 -87.9422 90° East 137 158 1,100 -677 Descending Chicago Center
Mon 09:11:00 AM 41.9817 -87.9067 140° Southeast  Level Estimated
Mon 09:18:00 AM 41.9817 -87.9067 140° Southeast  Level Estimated
Mon 09:19:00 AM 41.9817 -87.9067 140° Southeast  Level Estimated
Mon 09:20:00 AM 41.9817 -87.9067 140° Southeast  Level Estimated
Mon 09:21:00 AM 41.9817 -87.9067 140° Southeast  Level Estimated

Login

Don't have an account? Register now (free) for customized features, flight alerts, and more!